KLEB/LEB METAR and TAF weather

Enter ICAO airport designator
Station Type Date Time Source
KLEB METAR 2021/01/17 18:53 UTC NOAA

KLEB 171853Z 24010KT 9SM SCT030 OVC037 03/M03 A2936 RMK AO2 SLP949 T00281033


Station Type Date Time Source
KLEB Decoded METAR 2021/01/17 18:53 UTC NOAA

LEBANON MUNICIPAL AIRPORT, NH, United States (KLEB) 43-38N 072-18W 171M
Jan 17, 2021 - 01:53 PM EST / 2021.01.17 1853 UTC
Wind: from the WSW (240 degrees) at 12 MPH (10 KT):0
Visibility: 9 mile(s):0
Sky conditions: overcast
Temperature: 37.0 F (2.8 C)
Dew Point: 26.1 F (-3.3 C)
Relative Humidity: 64%
Pressure (altimeter): 29.36 in. Hg (994 hPa)
ob: KLEB 171853Z 24010KT 9SM SCT030 OVC037 03/M03 A2936 RMK AO2 SLP949 T00281033
cycle: 19

Station Type Date Time Source
KLEB TAF 2021/01/17 19:40 UTC NOAA

TAF
AMD KLEB 171837Z 1719/1818 24017G26KT P6SM VCSH SCT028 OVC040
TEMPO 1719/1720 4SM -SN BKN025
FM180000 26010KT P6SM BKN026
FM180500 25008KT P6SM SCT025 BKN035
FM181000 27008KT P6SM BKN026

Example: see airport list